Time;durP1;ratioP1;P1;durP2;ratioP2;P2;SDS_P1;SDS_P2;PMS_P1;PMS_P2;Temp;Humidity;BMP_temperature;BMP_pressure;BME280_temperature;BME280_humidity;BME280_pressure;Samples;Min_cycle;Max_cycle;Signal;HPM_P1;HPM_P2
2021/12/28 00:00:44;;;;;;;1.23;0.60;;;9.70;99.90;;;;;;5072604;28;20329;-80
2021/12/28 00:03:10;;;;;;;3.17;0.70;;;9.70;99.90;;;;;;5072770;28;20721;-77
2021/12/28 00:05:36;;;;;;;3.93;1.07;;;9.90;99.90;;;;;;5071759;28;20275;-78
2021/12/28 00:08:02;;;;;;;2.60;0.73;;;9.60;99.90;;;;;;5077197;28;20252;-82
2021/12/28 00:10:28;;;;;;;1.33;0.80;;;9.60;99.90;;;;;;5056169;28;20722;-78
2021/12/28 00:12:55;;;;;;;1.50;0.90;;;9.50;99.90;;;;;;5054779;28;20582;-79
2021/12/28 00:18:04;;;;;;;1.33;0.90;;;9.70;99.90;;;;;;5071329;28;20191;-82
2021/12/28 00:20:40;;;;;;;1.50;0.70;;;9.60;99.90;;;;;;5038669;28;20204;-78
2021/12/28 00:23:14;;;;;;;2.83;0.80;;;9.70;99.90;;;;;;5072190;28;20219;-81
2021/12/28 00:25:43;;;;;;;1.33;0.83;;;9.80;99.90;;;;;;5071108;28;20188;-82
2021/12/28 00:28:10;;;;;;;1.23;0.77;;;9.80;99.90;;;;;;5069741;28;20200;-78
2021/12/28 00:30:37;;;;;;;1.93;0.73;;;9.90;99.90;;;;;;5055147;28;20177;-77
2021/12/28 00:33:04;;;;;;;1.00;0.90;;;10.00;99.90;;;;;;5074184;28;20250;-81
2021/12/28 00:35:33;;;;;;;1.93;0.70;;;9.80;99.90;;;;;;5073269;28;20681;-82
2021/12/28 00:38:00;;;;;;;1.07;0.80;;;9.60;99.90;;;;;;5073950;28;20578;-78
2021/12/28 00:40:27;;;;;;;2.60;0.70;;;9.50;99.90;;;;;;5074631;28;20200;-80
2021/12/28 00:42:52;;;;;;;2.50;0.70;;;9.50;99.90;;;;;;5057280;28;20227;-78
2021/12/28 00:45:19;;;;;;;2.17;0.70;;;9.50;99.90;;;;;;5074352;28;20226;-81
2021/12/28 00:47:46;;;;;;;2.90;0.87;;;9.40;99.90;;;;;;5073418;28;20200;-81
2021/12/28 00:50:14;;;;;;;1.27;0.77;;;9.30;99.90;;;;;;5072456;28;20243;-78
2021/12/28 00:52:42;;;;;;;3.83;0.90;;;9.20;99.90;;;;;;5073120;28;20227;-83
2021/12/28 00:55:09;;;;;;;3.23;0.90;;;9.30;99.90;;;;;;5057417;28;20321;-81
2021/12/28 00:57:38;;;;;;;1.90;0.80;;;9.40;99.90;;;;;;5075519;28;20173;-79
2021/12/28 01:00:08;;;;;;;4.70;1.20;;;9.40;99.90;;;;;;5077618;28;20196;-79
2021/12/28 01:02:34;;;;;;;0.97;0.80;;;9.20;99.90;;;;;;5056767;28;20647;-82
2021/12/28 01:05:00;;;;;;;3.43;1.10;;;9.20;99.90;;;;;;5059285;28;20207;-81
2021/12/28 01:07:26;;;;;;;1.67;0.90;;;9.30;99.90;;;;;;5074033;28;20208;-77
2021/12/28 01:09:52;;;;;;;2.53;0.80;;;9.10;99.90;;;;;;5073613;28;20204;-81
2021/12/28 01:12:19;;;;;;;3.93;1.00;;;9.10;99.90;;;;;;5073055;28;20628;-79
2021/12/28 01:14:45;;;;;;;2.07;0.60;;;9.00;99.90;;;;;;5073641;28;20337;-81
2021/12/28 01:17:10;;;;;;;2.70;0.93;;;9.10;99.90;;;;;;5072507;28;20217;-78
2021/12/28 01:19:37;;;;;;;2.07;0.80;;;9.10;99.90;;;;;;5072792;28;20203;-82
2021/12/28 01:22:03;;;;;;;1.00;0.70;;;9.20;99.90;;;;;;5055935;28;20575;-82
2021/12/28 01:24:30;;;;;;;6.20;1.10;;;9.10;99.90;;;;;;5055718;28;20262;-79
2021/12/28 01:26:56;;;;;;;3.37;0.90;;;9.30;99.90;;;;;;5073749;28;20264;-78
2021/12/28 01:29:22;;;;;;;4.13;1.20;;;9.40;99.90;;;;;;5073555;28;20211;-81
2021/12/28 01:31:48;;;;;;;6.00;1.40;;;9.50;99.90;;;;;;5072126;28;20204;-82
2021/12/28 01:34:14;;;;;;;4.17;0.83;;;9.60;99.90;;;;;;5055620;28;20207;-79
2021/12/28 01:36:39;;;;;;;2.60;0.80;;;9.60;99.90;;;;;;5055215;28;20279;-82
2021/12/28 01:39:07;;;;;;;4.10;1.07;;;9.70;99.90;;;;;;5071517;28;20200;-81
2021/12/28 01:41:33;;;;;;;6.17;0.97;;;9.50;99.90;;;;;;5022718;28;20204;-79
2021/12/28 01:44:04;;;;;;;4.40;1.00;;;9.50;99.90;;;;;;5071016;28;20259;-79
2021/12/28 01:46:31;;;;;;;2.53;0.77;;;9.50;99.90;;;;;;5072957;28;20577;-82
2021/12/28 01:48:58;;;;;;;3.77;0.97;;;9.50;99.90;;;;;;5072373;28;20196;-80
2021/12/28 01:51:26;;;;;;;5.60;1.10;;;9.50;99.90;;;;;;5055715;28;20197;-80
2021/12/28 01:53:56;;;;;;;2.77;1.00;;;9.50;99.90;;;;;;5072980;28;20165;-78
2021/12/28 01:56:44;;;;;;;4.63;0.80;;;9.30;99.90;;;;;;5055261;28;20188;-81
2021/12/28 01:59:17;;;;;;;4.07;0.97;;;9.40;99.90;;;;;;5072209;28;20661;-80
2021/12/28 02:01:47;;;;;;;2.90;1.00;;;9.10;99.90;;;;;;5062142;28;20196;-79
2021/12/28 02:04:31;;;;;;;7.60;1.13;;;9.00;99.90;;;;;;5072693;28;20302;-79
2021/12/28 02:07:02;;;;;;;3.73;1.00;;;9.10;99.90;;;;;;5058141;28;20238;-78
2021/12/28 02:09:28;;;;;;;3.00;0.93;;;9.10;99.90;;;;;;5053575;28;20204;-81
2021/12/28 02:11:59;;;;;;;5.27;1.47;;;9.10;99.90;;;;;;5036699;28;20625;-77
2021/12/28 02:14:27;;;;;;;3.23;1.10;;;9.30;99.90;;;;;;5036736;28;20209;-82
2021/12/28 02:16:53;;;;;;;3.23;0.80;;;9.20;99.90;;;;;;5054403;28;20212;-79
2021/12/28 02:19:22;;;;;;;3.67;1.13;;;9.30;99.90;;;;;;5035537;28;20201;-81
2021/12/28 02:21:51;;;;;;;2.90;1.20;;;9.10;99.90;;;;;;5063000;28;20486;-82
2021/12/28 02:24:17;;;;;;;2.70;0.87;;;9.10;99.90;;;;;;5073528;28;20255;-81
2021/12/28 02:26:42;;;;;;;2.13;1.00;;;9.10;99.90;;;;;;5074312;28;20192;-81
2021/12/28 02:29:08;;;;;;;2.87;1.03;;;9.20;99.90;;;;;;5038086;28;20258;-81
2021/12/28 02:31:35;;;;;;;3.70;1.00;;;9.10;99.90;;;;;;5056941;28;20192;-81
2021/12/28 02:34:02;;;;;;;4.90;1.80;;;9.30;99.90;;;;;;5073491;28;20208;-80
2021/12/28 02:36:28;;;;;;;4.70;1.03;;;9.40;99.90;;;;;;5038721;28;20226;-80
2021/12/28 02:38:54;;;;;;;4.80;1.10;;;9.50;99.90;;;;;;5071897;28;20173;-81
2021/12/28 02:41:20;;;;;;;2.97;1.17;;;9.50;99.90;;;;;;5072157;28;20507;-82
2021/12/28 02:43:48;;;;;;;4.07;0.93;;;9.40;99.90;;;;;;5053935;28;20212;-77
2021/12/28 02:46:16;;;;;;;2.23;1.00;;;9.50;99.90;;;;;;5054607;28;20200;-78
2021/12/28 02:48:43;;;;;;;3.60;1.20;;;9.40;99.90;;;;;;5068163;28;20686;-81
2021/12/28 02:51:12;;;;;;;5.13;1.23;;;9.20;99.90;;;;;;5081404;28;20191;-81
2021/12/28 02:53:40;;;;;;;5.40;1.10;;;9.20;99.90;;;;;;5073210;28;20197;-78
2021/12/28 02:56:06;;;;;;;3.77;0.80;;;9.10;99.90;;;;;;5072938;28;20275;-78
2021/12/28 02:58:41;;;;;;;3.13;0.97;;;9.10;99.90;;;;;;5040023;28;20196;-80
2021/12/28 03:01:14;;;;;;;1.57;1.00;;;9.20;99.90;;;;;;5070970;28;20260;-80
2021/12/28 03:03:43;;;;;;;4.63;1.30;;;9.20;99.90;;;;;;5071991;28;20632;-81
2021/12/28 03:06:11;;;;;;;1.97;1.00;;;9.30;99.90;;;;;;5071907;28;20207;-80
2021/12/28 03:08:40;;;;;;;2.50;1.00;;;9.40;99.90;;;;;;5053380;28;20200;-81
2021/12/28 03:11:08;;;;;;;1.67;0.90;;;9.40;99.90;;;;;;5070796;28;20611;-77
2021/12/28 03:13:49;;;;;;;5.90;1.10;;;9.30;99.90;;;;;;5054215;28;20224;-81
2021/12/28 03:16:18;;;;;;;2.33;0.87;;;9.30;99.90;;;;;;5070187;28;20207;-77
2021/12/28 03:18:44;;;;;;;4.50;1.13;;;9.40;99.90;;;;;;5054177;28;20196;-79
2021/12/28 03:21:12;;;;;;;4.30;1.27;;;9.30;99.90;;;;;;5054388;28;20535;-78
2021/12/28 03:23:40;;;;;;;2.67;1.27;;;9.10;99.90;;;;;;5072967;28;20215;-78
2021/12/28 03:26:07;;;;;;;3.30;0.73;;;9.10;99.90;;;;;;5071062;28;20598;-82
2021/12/28 03:28:38;;;;;;;3.17;1.23;;;9.00;99.90;;;;;;5071471;28;20189;-78
2021/12/28 03:31:06;;;;;;;3.47;1.10;;;9.00;99.90;;;;;;5054579;28;20207;-81
2021/12/28 03:33:35;;;;;;;2.87;1.30;;;9.10;99.90;;;;;;5052909;28;20706;-78
2021/12/28 03:36:02;;;;;;;4.37;1.50;;;9.30;99.90;;;;;;5036487;28;20200;-79
2021/12/28 03:38:28;;;;;;;4.97;0.93;;;9.40;99.90;;;;;;5071220;28;20269;-77
2021/12/28 03:40:54;;;;;;;1.97;0.90;;;9.40;99.90;;;;;;5055604;28;20200;-78
2021/12/28 03:43:21;;;;;;;3.03;0.90;;;9.40;99.90;;;;;;5074015;28;20216;-80
2021/12/28 03:45:48;;;;;;;4.10;1.07;;;9.40;99.90;;;;;;5071915;28;20566;-78
2021/12/28 03:48:15;;;;;;;2.13;1.50;;;9.40;99.90;;;;;;5070342;28;20231;-79
2021/12/28 03:50:41;;;;;;;5.57;1.20;;;9.40;99.90;;;;;;5071236;28;20227;-78
2021/12/28 03:53:08;;;;;;;3.47;1.23;;;9.40;99.90;;;;;;5053617;28;20177;-82
2021/12/28 03:55:35;;;;;;;2.03;1.03;;;9.40;99.90;;;;;;5071024;28;20192;-78
2021/12/28 03:58:02;;;;;;;3.80;1.00;;;9.40;99.90;;;;;;5069447;28;20732;-81
2021/12/28 04:00:32;;;;;;;8.20;1.30;;;9.30;99.90;;;;;;5070429;28;20620;-81
2021/12/28 04:02:58;;;;;;;4.00;1.00;;;9.40;99.90;;;;;;5053166;28;20216;-77
2021/12/28 04:05:24;;;;;;;2.53;1.00;;;9.20;99.90;;;;;;5069616;28;20671;-78
2021/12/28 04:07:50;;;;;;;4.80;1.30;;;9.30;99.90;;;;;;5074748;28;20631;-78
2021/12/28 04:10:18;;;;;;;4.03;1.30;;;9.30;99.90;;;;;;5079437;28;20275;-81
2021/12/28 04:12:44;;;;;;;2.53;1.00;;;9.30;99.90;;;;;;5061896;28;20200;-81
2021/12/28 04:15:13;;;;;;;5.27;1.17;;;9.40;99.90;;;;;;5078538;28;20203;-81
2021/12/28 04:17:40;;;;;;;5.07;1.00;;;9.20;99.90;;;;;;5076967;28;20195;-79
2021/12/28 04:20:10;;;;;;;3.67;0.97;;;9.10;99.90;;;;;;5059580;28;20266;-77
2021/12/28 04:22:36;;;;;;;3.23;1.27;;;9.30;99.90;;;;;;5059771;28;20180;-77
2021/12/28 04:25:02;;;;;;;4.17;1.30;;;9.40;99.90;;;;;;5076690;28;20270;-81
2021/12/28 04:27:28;;;;;;;3.90;1.00;;;9.30;99.90;;;;;;5078132;28;20664;-77
2021/12/28 04:29:54;;;;;;;3.83;1.30;;;9.40;99.90;;;;;;5061020;28;20219;-81
2021/12/28 04:32:20;;;;;;;3.60;1.00;;;9.50;99.90;;;;;;5061423;28;20211;-81
2021/12/28 04:34:45;;;;;;;4.23;1.13;;;9.50;99.90;;;;;;5061753;28;20222;-81
2021/12/28 04:37:11;;;;;;;4.50;1.23;;;9.40;99.90;;;;;;5078111;28;20284;-76
2021/12/28 04:39:37;;;;;;;1.77;0.87;;;9.50;99.90;;;;;;5077829;28;20196;-77
2021/12/28 04:42:03;;;;;;;4.67;1.00;;;9.60;99.90;;;;;;5077919;28;20200;-78
2021/12/28 04:44:29;;;;;;;4.47;1.00;;;9.70;99.90;;;;;;5076837;28;20227;-81
2021/12/28 04:46:55;;;;;;;3.27;1.40;;;9.70;99.90;;;;;;5059188;28;20192;-78
2021/12/28 04:49:24;;;;;;;3.43;1.37;;;9.40;99.90;;;;;;5060486;28;20183;-81
2021/12/28 04:51:50;;;;;;;2.77;1.10;;;9.50;99.90;;;;;;5060821;28;20223;-78
2021/12/28 04:54:18;;;;;;;5.17;1.10;;;9.50;99.90;;;;;;5076888;28;20241;-78
2021/12/28 04:56:45;;;;;;;4.23;1.47;;;9.70;99.90;;;;;;5043597;28;20219;-78
2021/12/28 04:59:14;;;;;;;4.77;1.23;;;9.60;99.90;;;;;;5077271;28;20230;-81
2021/12/28 05:01:40;;;;;;;4.40;1.00;;;9.70;99.90;;;;;;5067671;28;20757;-80
2021/12/28 05:04:06;;;;;;;4.63;1.20;;;9.70;99.90;;;;;;5085200;28;20271;-77
2021/12/28 05:06:35;;;;;;;5.37;1.10;;;9.70;99.90;;;;;;5065859;28;20235;-80
2021/12/28 05:09:03;;;;;;;2.93;1.07;;;9.60;99.90;;;;;;5081851;28;20553;-79
2021/12/28 05:11:31;;;;;;;3.73;1.10;;;9.70;99.90;;;;;;5065672;28;20231;-78
2021/12/28 05:13:57;;;;;;;3.53;1.23;;;9.60;99.90;;;;;;5059795;28;20203;-76
2021/12/28 05:16:27;;;;;;;2.60;0.87;;;9.60;99.90;;;;;;5059326;28;20862;-77
2021/12/28 05:18:54;;;;;;;5.40;1.37;;;9.50;99.90;;;;;;5074064;28;20279;-78
2021/12/28 05:21:19;;;;;;;4.97;0.90;;;9.50;99.90;;;;;;5072591;28;20227;-80
2021/12/28 05:23:45;;;;;;;1.50;1.00;;;9.30;99.90;;;;;;5072112;28;20258;-77
2021/12/28 05:26:11;;;;;;;6.57;1.40;;;9.20;99.90;;;;;;5073314;28;20188;-78
2021/12/28 05:28:37;;;;;;;6.57;1.20;;;9.30;99.90;;;;;;5056443;28;20223;-78
2021/12/28 05:31:03;;;;;;;3.03;1.10;;;9.50;99.90;;;;;;5073348;28;20204;-80
2021/12/28 05:33:29;;;;;;;3.60;1.27;;;9.60;99.90;;;;;;5074769;28;20248;-78
2021/12/28 05:35:54;;;;;;;3.27;1.33;;;9.60;99.90;;;;;;5072720;28;20188;-78
2021/12/28 05:38:20;;;;;;;3.77;1.40;;;9.50;99.90;;;;;;5072640;28;20199;-77
2021/12/28 05:40:47;;;;;;;3.53;1.20;;;9.50;99.90;;;;;;5078970;28;20193;-80
2021/12/28 05:43:14;;;;;;;2.77;1.30;;;9.60;99.90;;;;;;5077625;28;20548;-77
2021/12/28 05:45:41;;;;;;;2.27;1.07;;;9.60;99.90;;;;;;5057971;28;20733;-81
2021/12/28 05:48:06;;;;;;;4.30;1.30;;;9.60;99.90;;;;;;5075602;28;20237;-78
2021/12/28 05:50:32;;;;;;;1.40;0.83;;;9.40;99.90;;;;;;5057635;28;20584;-80
2021/12/28 05:52:58;;;;;;;4.47;1.00;;;9.50;99.90;;;;;;5075842;28;20250;-80
2021/12/28 05:55:24;;;;;;;1.87;0.87;;;9.60;99.90;;;;;;5074806;28;20204;-80
2021/12/28 05:57:50;;;;;;;1.93;1.13;;;9.60;99.90;;;;;;5056875;28;20199;-81
2021/12/28 06:00:16;;;;;;;2.20;1.00;;;9.60;99.90;;;;;;5072799;28;20204;-81
2021/12/28 06:02:42;;;;;;;3.23;1.10;;;9.70;99.90;;;;;;5073487;28;20203;-81
2021/12/28 06:05:08;;;;;;;4.63;1.37;;;9.50;99.90;;;;;;5056783;28;20287;-79
2021/12/28 06:07:34;;;;;;;0.93;0.87;;;9.60;99.90;;;;;;5072957;28;20238;-78
2021/12/28 06:10:00;;;;;;;3.53;1.30;;;9.60;99.90;;;;;;5060281;28;20235;-78
2021/12/28 06:12:26;;;;;;;4.70;1.10;;;9.70;99.90;;;;;;5074458;28;20193;-79
2021/12/28 06:14:52;;;;;;;3.33;1.10;;;9.70;99.90;;;;;;5073477;28;20192;-78
2021/12/28 06:17:18;;;;;;;2.10;1.10;;;9.80;99.90;;;;;;5057192;28;20197;-77
2021/12/28 06:19:44;;;;;;;3.17;1.20;;;9.90;99.90;;;;;;5055368;28;20205;-77
2021/12/28 06:22:10;;;;;;;2.17;1.07;;;9.80;99.90;;;;;;5072904;28;20200;-81
2021/12/28 06:24:35;;;;;;;1.70;1.20;;;9.90;99.90;;;;;;5073353;28;20641;-77
2021/12/28 06:27:01;;;;;;;3.43;1.03;;;9.90;99.90;;;;;;5074009;28;20200;-77
2021/12/28 06:29:27;;;;;;;4.73;1.50;;;9.70;99.90;;;;;;5073690;28;20192;-76
2021/12/28 06:31:53;;;;;;;7.13;1.20;;;9.70;99.90;;;;;;5056482;28;20239;-77
2021/12/28 06:34:19;;;;;;;1.67;0.93;;;9.80;99.90;;;;;;5075170;28;20265;-80
2021/12/28 06:36:45;;;;;;;3.03;1.20;;;9.60;99.90;;;;;;5074100;28;20275;-79
2021/12/28 06:39:11;;;;;;;1.97;1.00;;;9.40;99.90;;;;;;5039694;28;20231;-77
2021/12/28 06:41:38;;;;;;;5.50;2.23;;;9.50;99.90;;;;;;5071926;28;20192;-81
2021/12/28 06:44:09;;;;;;;3.50;1.40;;;9.60;99.90;;;;;;5074224;28;20212;-77
2021/12/28 06:46:38;;;;;;;2.70;1.30;;;9.40;99.90;;;;;;5069380;28;20322;-75
2021/12/28 06:49:06;;;;;;;2.73;1.30;;;9.40;99.90;;;;;;5038045;28;20200;-81
2021/12/28 06:51:32;;;;;;;2.73;0.90;;;9.40;99.90;;;;;;5070450;28;20196;-81
2021/12/28 06:53:58;;;;;;;3.40;0.93;;;9.50;99.90;;;;;;5068445;28;20207;-78
2021/12/28 06:56:24;;;;;;;2.03;0.93;;;9.40;99.90;;;;;;5053206;28;20234;-77
2021/12/28 06:58:50;;;;;;;2.70;0.70;;;9.50;99.90;;;;;;5053303;28;20222;-81
2021/12/28 07:01:16;;;;;;;1.50;0.60;;;9.60;99.90;;;;;;5053170;28;20200;-77
2021/12/28 07:03:42;;;;;;;1.37;0.70;;;9.60;99.90;;;;;;5070121;28;20321;-82
2021/12/28 07:06:08;;;;;;;1.23;0.60;;;9.60;99.90;;;;;;5086887;28;20295;-81
2021/12/28 07:08:34;;;;;;;0.93;0.60;;;9.50;99.90;;;;;;5070742;28;20840;-78
2021/12/28 07:11:01;;;;;;;0.60;0.50;;;9.60;99.90;;;;;;5070869;28;20566;-77
2021/12/28 07:13:27;;;;;;;1.90;0.40;;;9.80;99.90;;;;;;5071632;28;20180;-80
2021/12/28 07:15:53;;;;;;;2.50;0.90;;;9.70;99.90;;;;;;5071966;28;20834;-77
2021/12/28 07:18:19;;;;;;;1.17;0.67;;;9.50;99.90;;;;;;5067059;28;20692;-77
2021/12/28 07:20:45;;;;;;;0.50;0.50;;;9.60;99.90;;;;;;5069616;28;20195;-82
2021/12/28 07:23:11;;;;;;;0.70;0.50;;;9.80;99.90;;;;;;5070304;28;20212;-81
2021/12/28 07:25:37;;;;;;;0.60;0.57;;;9.80;99.90;;;;;;5053394;28;20230;-81
2021/12/28 07:28:03;;;;;;;1.37;0.80;;;9.70;99.90;;;;;;5074655;28;20268;-81
2021/12/28 07:30:30;;;;;;;1.67;0.50;;;9.70;99.90;;;;;;5054791;28;20219;-81
2021/12/28 07:32:55;;;;;;;0.57;0.40;;;9.70;99.90;;;;;;5088283;28;20197;-81
2021/12/28 07:35:21;;;;;;;0.50;0.50;;;9.80;99.90;;;;;;5053023;28;20201;-77
2021/12/28 07:37:47;;;;;;;0.93;0.50;;;9.80;99.90;;;;;;5071272;28;20241;-78
2021/12/28 07:40:14;;;;;;;1.30;0.60;;;9.70;99.90;;;;;;5086847;28;20566;-80
2021/12/28 07:42:40;;;;;;;0.53;0.40;;;9.90;99.90;;;;;;5053357;28;20191;-77
2021/12/28 07:45:12;;;;;;;0.73;0.40;;;9.90;99.90;;;;;;5068627;28;20200;-81
2021/12/28 07:47:39;;;;;;;0.67;0.40;;;9.90;99.90;;;;;;5071647;28;20199;-78
2021/12/28 07:50:06;;;;;;;0.73;0.53;;;10.00;99.90;;;;;;5070665;28;20283;-80
2021/12/28 07:52:32;;;;;;;0.77;0.50;;;10.00;99.90;;;;;;5072932;28;20225;-82
2021/12/28 07:55:00;;;;;;;0.40;0.40;;;9.90;99.90;;;;;;5075318;28;20192;-81
2021/12/28 07:57:26;;;;;;;0.40;0.40;;;10.00;99.90;;;;;;5056717;28;20251;-80
2021/12/28 07:59:52;;;;;;;0.50;0.50;;;10.10;99.90;;;;;;5053843;28;20197;-83
2021/12/28 08:02:19;;;;;;;0.80;0.60;;;10.20;99.90;;;;;;5046997;28;20214;-76
2021/12/28 08:04:45;;;;;;;0.23;0.23;;;10.20;99.90;;;;;;5051305;28;20220;-78
2021/12/28 08:07:10;;;;;;;0.47;0.47;;;10.10;99.90;;;;;;5051784;28;20222;-82
2021/12/28 08:09:36;;;;;;;0.87;0.50;;;10.10;99.90;;;;;;5066942;28;20753;-77
2021/12/28 08:12:02;;;;;;;0.60;0.40;;;10.30;99.90;;;;;;5066569;28;20184;-81
2021/12/28 08:14:28;;;;;;;1.00;0.53;;;10.10;99.90;;;;;;5067692;28;20230;-81
2021/12/28 08:16:54;;;;;;;1.07;0.67;;;10.10;99.90;;;;;;5083765;28;20613;-81
2021/12/28 08:19:20;;;;;;;0.40;0.40;;;10.00;99.90;;;;;;5047206;28;20201;-81
2021/12/28 08:21:47;;;;;;;3.17;0.60;;;10.10;99.90;;;;;;5068387;28;20683;-77
2021/12/28 08:24:13;;;;;;;0.50;0.40;;;10.10;99.90;;;;;;5084498;28;20224;-76
2021/12/28 08:26:39;;;;;;;0.60;0.30;;;10.10;99.90;;;;;;5069742;28;20196;-81
2021/12/28 08:29:06;;;;;;;2.13;0.50;;;10.10;99.90;;;;;;5069403;28;20216;-76
2021/12/28 08:31:33;;;;;;;0.40;0.40;;;10.10;99.90;;;;;;5067694;28;20198;-77
2021/12/28 08:33:59;;;;;;;0.83;0.50;;;10.20;99.90;;;;;;5083787;28;20208;-76
2021/12/28 08:36:25;;;;;;;1.80;0.60;;;10.30;99.90;;;;;;5067388;28;20215;-76
2021/12/28 08:38:51;;;;;;;1.30;0.60;;;10.30;99.90;;;;;;5067719;28;20723;-76
2021/12/28 08:41:17;;;;;;;0.77;0.40;;;10.20;99.90;;;;;;5084849;28;20180;-81
2021/12/28 08:43:45;;;;;;;0.60;0.60;;;10.30;99.90;;;;;;5051390;28;20212;-73
2021/12/28 08:46:11;;;;;;;0.60;0.50;;;10.30;99.90;;;;;;5067046;28;20303;-73
2021/12/28 08:48:37;;;;;;;0.30;0.30;;;10.40;99.90;;;;;;5068931;28;20275;-73
2021/12/28 08:51:03;;;;;;;0.50;0.40;;;10.40;99.90;;;;;;5064804;28;20212;-80
2021/12/28 08:53:29;;;;;;;0.30;0.30;;;10.40;99.90;;;;;;5052696;28;20315;-73
2021/12/28 08:55:55;;;;;;;0.67;0.60;;;10.40;99.90;;;;;;5068637;28;20204;-74
2021/12/28 08:58:20;;;;;;;1.50;1.13;;;10.50;99.90;;;;;;5063946;28;20313;-74
2021/12/28 09:00:46;;;;;;;1.03;0.50;;;10.60;99.90;;;;;;5083687;28;20196;-75
2021/12/28 09:03:12;;;;;;;0.60;0.50;;;10.70;99.90;;;;;;5072335;28;20220;-80
2021/12/28 09:05:38;;;;;;;0.93;0.70;;;10.70;99.90;;;;;;5057091;28;20208;-76
2021/12/28 09:08:11;;;;;;;2.77;1.40;;;10.70;99.90;;;;;;5076505;28;20208;-76
2021/12/28 09:10:37;;;;;;;0.70;0.70;;;10.70;99.90;;;;;;5075478;28;20608;-78
2021/12/28 09:13:03;;;;;;;0.30;0.30;;;10.90;99.90;;;;;;5088648;28;20200;-81
2021/12/28 09:15:29;;;;;;;0.60;0.40;;;10.70;99.90;;;;;;5072561;28;20276;-81
2021/12/28 09:17:55;;;;;;;1.63;1.30;;;10.80;99.90;;;;;;5053250;28;20204;-75
2021/12/28 09:20:23;;;;;;;0.93;0.93;;;10.80;99.90;;;;;;5071388;28;20208;-81
2021/12/28 09:22:51;;;;;;;1.20;0.80;;;10.80;99.90;;;;;;5071061;28;20219;-82
2021/12/28 09:25:18;;;;;;;0.83;0.40;;;10.80;99.90;;;;;;5070004;28;20203;-81
2021/12/28 09:27:45;;;;;;;0.40;0.40;;;11.00;99.90;;;;;;5070951;28;20566;-80
2021/12/28 09:30:11;;;;;;;0.70;0.40;;;11.10;99.90;;;;;;5070223;28;20569;-81
2021/12/28 09:32:37;;;;;;;0.40;0.33;;;11.10;99.90;;;;;;5088085;28;20192;-81
2021/12/28 09:35:04;;;;;;;1.23;0.50;;;11.10;99.90;;;;;;5070899;28;20210;-83
2021/12/28 09:37:29;;;;;;;0.43;0.43;;;11.10;99.90;;;;;;5070835;28;20180;-82
2021/12/28 09:39:57;;;;;;;0.50;0.50;;;11.10;99.90;;;;;;5071094;28;20192;-77
2021/12/28 09:42:24;;;;;;;0.33;0.33;;;11.10;99.90;;;;;;5071305;28;20223;-74
2021/12/28 09:44:51;;;;;;;0.40;0.40;;;11.40;99.90;;;;;;5069487;28;20228;-83
2021/12/28 09:47:19;;;;;;;0.47;0.47;;;11.30;99.90;;;;;;5071645;28;20204;-77
2021/12/28 09:49:45;;;;;;;0.33;0.30;;;11.30;99.90;;;;;;5070973;28;20211;-78
2021/12/28 09:52:12;;;;;;;0.40;0.40;;;11.30;99.90;;;;;;5071076;28;20571;-77
2021/12/28 09:54:39;;;;;;;0.50;0.50;;;11.30;99.90;;;;;;5070118;28;20283;-81
2021/12/28 09:57:05;;;;;;;0.40;0.40;;;11.30;99.90;;;;;;5087262;28;20711;-75
2021/12/28 09:59:32;;;;;;;0.80;0.50;;;11.20;99.90;;;;;;5067605;28;20204;-74
2021/12/28 10:01:59;;;;;;;0.50;0.40;;;11.20;99.90;;;;;;5070468;28;20572;-79
2021/12/28 10:04:26;;;;;;;0.50;0.50;;;11.30;99.90;;;;;;5069554;28;20307;-75
2021/12/28 10:07:10;;;;;;;0.70;0.60;;;11.40;99.90;;;;;;5036809;28;20718;-82
2021/12/28 10:09:36;;;;;;;0.50;0.50;;;11.50;99.90;;;;;;5070132;28;20277;-81
2021/12/28 10:12:02;;;;;;;0.50;0.40;;;11.60;99.90;;;;;;5071229;28;20216;-73
2021/12/28 10:14:29;;;;;;;0.50;0.50;;;11.50;99.90;;;;;;5069611;28;20764;-75
2021/12/28 10:17:07;;;;;;;0.50;0.50;;;11.50;99.90;;;;;;5070380;28;20207;-75
2021/12/28 10:19:39;;;;;;;0.53;0.53;;;11.50;99.90;;;;;;5070088;28;20200;-74
2021/12/28 10:22:24;;;;;;;0.80;0.50;;;11.70;99.90;;;;;;5070332;28;20196;-75
2021/12/28 10:24:53;;;;;;;1.90;0.50;;;11.80;99.90;;;;;;5070887;28;20324;-74
2021/12/28 10:27:22;;;;;;;0.80;0.60;;;11.70;99.90;;;;;;5072461;28;20196;-82
2021/12/28 10:29:48;;;;;;;0.30;0.30;;;11.60;99.90;;;;;;5072271;28;20207;-82
2021/12/28 10:32:26;;;;;;;0.47;0.40;;;11.60;99.90;;;;;;5072023;28;20231;-81
2021/12/28 10:34:59;;;;;;;1.87;0.47;;;11.60;99.90;;;;;;5069714;28;20196;-84
2021/12/28 10:37:37;;;;;;;0.27;0.27;;;11.60;99.90;;;;;;5086319;28;20200;-82
2021/12/28 10:40:10;;;;;;;0.30;0.30;;;11.60;99.90;;;;;;5069261;28;20241;-82
2021/12/28 10:42:52;;;;;;;0.40;0.40;;;11.70;99.90;;;;;;5071547;28;20204;-81
2021/12/28 10:45:26;;;;;;;0.77;0.40;;;11.90;99.90;;;;;;5069215;28;20349;-83
2021/12/28 10:47:53;;;;;;;2.00;0.30;;;11.90;99.90;;;;;;5071885;28;20200;-76
2021/12/28 10:50:25;;;;;;;0.40;0.40;;;11.90;99.90;;;;;;5060926;28;20197;-83
2021/12/28 10:53:01;;;;;;;0.40;0.40;;;12.10;99.90;;;;;;5049216;28;20205;-77
2021/12/28 10:55:27;;;;;;;0.50;0.50;;;12.00;99.90;;;;;;5056351;28;20281;-76
2021/12/28 10:57:53;;;;;;;0.77;0.50;;;12.00;99.90;;;;;;5070187;28;20250;-79
2021/12/28 11:00:21;;;;;;;0.40;0.40;;;12.10;99.90;;;;;;5071632;28;20977;-73
2021/12/28 11:02:47;;;;;;;1.50;0.60;;;12.30;99.90;;;;;;5069742;28;20216;-74
2021/12/28 11:05:33;;;;;;;0.80;0.40;;;12.40;99.90;;;;;;5070668;28;20248;-75
2021/12/28 11:07:59;;;;;;;1.33;0.50;;;12.30;99.90;;;;;;5036280;28;20211;-75
2021/12/28 11:10:29;;;;;;;0.40;0.40;;;12.30;99.90;;;;;;5069373;28;20207;-75
2021/12/28 11:12:55;;;;;;;0.60;0.50;;;12.40;99.90;;;;;;5071729;28;21025;-75
2021/12/28 11:15:22;;;;;;;0.90;0.50;;;12.40;99.90;;;;;;5084959;28;20200;-76
2021/12/28 11:17:48;;;;;;;0.70;0.40;;;12.50;99.90;;;;;;5069194;28;20236;-76
2021/12/28 11:20:14;;;;;;;0.50;0.50;;;12.60;99.90;;;;;;5069393;28;20235;-75
2021/12/28 11:22:39;;;;;;;0.40;0.40;;;12.70;99.90;;;;;;5085826;28;20261;-76
2021/12/28 11:25:23;;;;;;;0.60;0.40;;;12.60;99.90;;;;;;5070229;28;20227;-76
2021/12/28 11:28:18;;;;;;;0.50;0.50;;;12.60;99.90;;;;;;5069949;28;20223;-77
2021/12/28 11:31:32;;;;;;;0.40;0.40;;;12.50;99.90;;;;;;5068597;28;20210;-75
2021/12/28 11:34:04;;;;;;;0.30;0.30;;;12.60;99.90;;;;;;5017416;28;20331;-75
2021/12/28 11:36:53;;;;;;;0.30;0.30;;;12.70;99.90;;;;;;5004113;28;20205;-75
2021/12/28 11:39:22;;;;;;;0.60;0.37;;;12.70;99.90;;;;;;5042545;28;20700;-76
2021/12/28 11:41:50;;;;;;;1.60;0.30;;;12.50;99.90;;;;;;5055801;28;20200;-76
2021/12/28 11:44:18;;;;;;;1.50;0.70;;;12.60;99.90;;;;;;5068141;28;20220;-75
2021/12/28 11:46:45;;;;;;;7.17;4.70;;;12.70;99.90;;;;;;5069263;28;20727;-76
2021/12/28 11:49:13;;;;;;;2.30;1.80;;;12.80;99.90;;;;;;5071189;28;20575;-75
2021/12/28 11:51:48;;;;;;;0.93;0.80;;;12.70;99.90;;;;;;5046439;28;20233;-75
2021/12/28 11:54:17;;;;;;;0.50;0.50;;;12.80;99.90;;;;;;5084657;28;20196;-74
2021/12/28 11:56:50;;;;;;;1.90;0.90;;;12.70;99.90;;;;;;5035603;28;20233;-75
2021/12/28 11:59:20;;;;;;;0.67;0.50;;;12.60;99.90;;;;;;5069044;28;20182;-76
2021/12/28 12:01:52;;;;;;;0.60;0.50;;;12.60;99.90;;;;;;5064129;28;20200;-76
2021/12/28 12:04:30;;;;;;;3.20;1.10;;;12.60;99.90;;;;;;5067894;28;20216;-76
2021/12/28 12:07:04;;;;;;;1.67;1.00;;;12.60;99.90;;;;;;5082387;28;20192;-73
2021/12/28 12:09:33;;;;;;;1.30;0.83;;;12.50;99.90;;;;;;5045541;28;20550;-76
2021/12/28 12:12:08;;;;;;;1.70;0.40;;;12.40;99.90;;;;;;5066857;28;20207;-75
2021/12/28 12:14:56;;;;;;;0.80;0.60;;;12.40;99.90;;;;;;5066635;28;20203;-75
2021/12/28 12:17:28;;;;;;;1.00;0.70;;;12.40;99.90;;;;;;5064817;28;20191;-75
2021/12/28 12:19:59;;;;;;;1.23;0.60;;;12.40;99.90;;;;;;5063290;28;20196;-75
2021/12/28 12:22:31;;;;;;;2.50;0.70;;;12.50;99.90;;;;;;5067518;28;20199;-74
2021/12/28 12:24:59;;;;;;;1.63;0.67;;;12.40;99.90;;;;;;5065888;28;20766;-74
2021/12/28 12:27:47;;;;;;;1.17;0.60;;;12.40;99.90;;;;;;5066378;28;20246;-74
2021/12/28 12:30:28;;;;;;;1.80;0.80;;;12.40;99.90;;;;;;5079427;28;20208;-75
2021/12/28 12:33:06;;;;;;;2.03;0.83;;;12.30;99.90;;;;;;5070354;28;20643;-76
2021/12/28 12:35:47;;;;;;;0.70;0.60;;;12.20;99.90;;;;;;5068746;28;20188;-75
2021/12/28 12:38:13;;;;;;;1.47;0.63;;;12.20;99.90;;;;;;5070524;28;20204;-75
2021/12/28 12:41:01;;;;;;;1.67;0.90;;;12.20;99.90;;;;;;5072650;28;20349;-75
2021/12/28 12:43:36;;;;;;;2.40;0.80;;;12.30;99.90;;;;;;5087476;28;20299;-74
2021/12/28 12:46:20;;;;;;;0.90;0.60;;;12.30;99.90;;;;;;5072235;28;20352;-75
2021/12/28 12:48:46;;;;;;;1.17;0.50;;;12.30;99.90;;;;;;5054122;28;20656;-74
2021/12/28 12:51:27;;;;;;;1.00;0.90;;;12.10;99.90;;;;;;5071853;28;20203;-75
2021/12/28 12:53:58;;;;;;;1.13;0.70;;;12.20;99.90;;;;;;5054979;28;20214;-74
2021/12/28 12:56:30;;;;;;;1.80;0.70;;;12.10;99.90;;;;;;5071977;28;20192;-75
2021/12/28 12:58:59;;;;;;;0.70;0.50;;;12.20;99.90;;;;;;5070987;28;20275;-75
2021/12/28 13:01:25;;;;;;;1.20;0.77;;;12.30;99.90;;;;;;5070537;28;20188;-75